createdAt,value
2022-09-09T00:00:38.714Z,15.08
2022-09-09T00:02:02.463Z,15.10
2022-09-09T00:02:58.796Z,15.06
2022-09-09T00:04:16.464Z,15.02
2022-09-09T00:05:17.533Z,15.03
2022-09-09T00:06:19.579Z,15.05
2022-09-09T00:07:06.663Z,15.08
2022-09-09T00:07:55.724Z,15.08
2022-09-09T00:08:48.815Z,15.08
2022-09-09T00:09:42.423Z,15.10
2022-09-09T00:10:35.652Z,15.00
2022-09-09T00:11:37.794Z,15.02
2022-09-09T00:12:43.403Z,14.99
2022-09-09T00:13:36.303Z,15.00
2022-09-09T00:14:44.203Z,14.95
2022-09-09T00:16:05.465Z,14.98
2022-09-09T00:16:57.504Z,15.02
2022-09-09T00:17:50.834Z,15.06
2022-09-09T00:18:46.994Z,15.04
2022-09-09T00:19:54.764Z,15.01
2022-09-09T00:21:16.823Z,14.96
2022-09-09T00:22:22.503Z,14.86
2022-09-09T00:23:16.344Z,14.85
2022-09-09T00:24:19.684Z,14.77
2022-09-09T00:25:18.043Z,14.74
2022-09-09T00:26:13.403Z,14.74
2022-09-09T00:27:13.393Z,14.74
2022-09-09T00:28:00.091Z,14.73
2022-09-09T00:28:58.813Z,14.74
2022-09-09T00:30:15.303Z,14.75
2022-09-09T00:31:15.931Z,14.75
2022-09-09T00:32:14.730Z,14.70
2022-09-09T00:33:05.303Z,14.70
2022-09-09T00:33:51.853Z,14.66
2022-09-09T00:34:49.524Z,14.58
2022-09-09T00:35:39.672Z,14.58
2022-09-09T00:36:27.731Z,14.53
2022-09-09T00:37:15.053Z,14.54
2022-09-09T00:38:07.004Z,14.56
2022-09-09T00:38:58.822Z,14.59
2022-09-09T00:39:49.205Z,14.49
2022-09-09T00:41:05.103Z,14.47
2022-09-09T00:42:04.188Z,14.48
2022-09-09T00:43:00.214Z,14.39
2022-09-09T00:43:55.244Z,14.37
2022-09-09T00:45:03.623Z,14.35
2022-09-09T00:45:50.369Z,14.37
2022-09-09T00:46:47.580Z,14.37
2022-09-09T00:47:44.478Z,14.36
2022-09-09T00:49:10.558Z,14.33
2022-09-09T00:50:25.861Z,14.37
2022-09-09T00:51:31.394Z,14.31
2022-09-09T00:52:29.983Z,14.34
2022-09-09T00:53:34.857Z,14.33
2022-09-09T00:54:49.164Z,14.33
2022-09-09T00:55:53.923Z,14.28
2022-09-09T00:56:48.694Z,14.24
2022-09-09T00:57:39.020Z,14.27
2022-09-09T00:58:25.783Z,14.28
2022-09-09T00:59:28.206Z,14.32
2022-09-09T01:00:28.203Z,14.28
2022-09-09T01:01:15.250Z,14.24
2022-09-09T01:02:02.850Z,14.18
2022-09-09T01:03:26.594Z,14.20
2022-09-09T01:04:18.191Z,14.12
2022-09-09T01:05:25.593Z,14.11
2022-09-09T01:06:26.744Z,14.11
2022-09-09T01:07:20.144Z,14.13
2022-09-09T01:08:29.371Z,14.19
2022-09-09T01:09:28.043Z,14.16
2022-09-09T01:10:43.385Z,14.20
2022-09-09T01:11:53.603Z,14.16
2022-09-09T01:12:43.192Z,14.04
2022-09-09T01:13:34.884Z,14.05
2022-09-09T01:14:34.036Z,14.04
2022-09-09T01:15:40.023Z,14.02
2022-09-09T01:16:27.543Z,14.01
2022-09-09T01:17:28.643Z,13.98
2022-09-09T01:18:18.974Z,13.94
2022-09-09T01:19:08.562Z,13.94
2022-09-09T01:20:07.484Z,13.99
2022-09-09T01:21:29.444Z,13.94
2022-09-09T01:22:57.343Z,13.92
2022-09-09T01:24:25.353Z,13.86
2022-09-09T01:25:21.314Z,13.84
2022-09-09T01:26:16.803Z,13.88
2022-09-09T01:27:05.223Z,13.89
2022-09-09T01:27:52.869Z,13.87
2022-09-09T01:28:40.234Z,13.85
2022-09-09T01:29:26.974Z,13.84
2022-09-09T01:30:15.912Z,13.83
2022-09-09T01:31:04.715Z,13.82
2022-09-09T01:32:03.681Z,13.83
2022-09-09T01:32:52.603Z,13.77
2022-09-09T01:33:39.287Z,13.76
2022-09-09T01:34:29.212Z,13.72
2022-09-09T01:35:48.203Z,13.73
2022-09-09T01:36:42.203Z,13.69
2022-09-09T01:37:28.946Z,13.70
2022-09-09T01:38:15.933Z,13.72
2022-09-09T01:39:03.164Z,13.67
2022-09-09T01:39:49.937Z,13.63
2022-09-09T01:40:36.934Z,13.71
2022-09-09T01:41:23.723Z,13.68
2022-09-09T01:42:12.403Z,13.70
2022-09-09T01:42:59.243Z,13.65
2022-09-09T01:43:46.004Z,13.61
2022-09-09T01:44:32.953Z,13.55
2022-09-09T01:45:20.061Z,13.60
2022-09-09T01:46:06.881Z,13.63
2022-09-09T01:46:53.663Z,13.55
2022-09-09T01:47:40.463Z,13.54
2022-09-09T01:48:28.355Z,13.57
2022-09-09T01:49:15.154Z,13.58
2022-09-09T01:50:02.843Z,13.57
2022-09-09T01:50:50.173Z,13.53
2022-09-09T01:51:39.614Z,13.50
2022-09-09T01:52:26.543Z,13.51
2022-09-09T01:53:14.243Z,13.46
2022-09-09T01:54:01.043Z,13.46
2022-09-09T01:54:47.844Z,13.43
2022-09-09T01:55:41.624Z,13.43
2022-09-09T01:56:28.302Z,13.41
2022-09-09T01:57:26.631Z,13.44
2022-09-09T01:58:50.502Z,13.45
2022-09-09T01:59:49.601Z,13.35
2022-09-09T02:00:38.810Z,13.37
2022-09-09T02:01:37.276Z,13.37
2022-09-09T02:02:35.563Z,13.35
2022-09-09T02:03:28.543Z,13.41
2022-09-09T02:04:39.783Z,13.31
2022-09-09T02:05:29.435Z,13.21
2022-09-09T02:06:34.122Z,13.15
2022-09-09T02:07:29.804Z,13.17
2022-09-09T02:08:20.063Z,13.14
2022-09-09T02:09:08.774Z,13.10
2022-09-09T02:10:03.924Z,13.06
2022-09-09T02:10:58.004Z,13.05
2022-09-09T02:11:45.904Z,13.05
2022-09-09T02:12:33.023Z,13.05
2022-09-09T02:13:21.347Z,13.08
2022-09-09T02:14:14.091Z,13.07
2022-09-09T02:15:05.294Z,13.09
2022-09-09T02:16:30.696Z,13.04
2022-09-09T02:17:22.523Z,13.08
2022-09-09T02:18:11.553Z,13.09
2022-09-09T02:19:10.143Z,13.05
2022-09-09T02:20:05.433Z,12.98
2022-09-09T02:20:53.318Z,12.99
2022-09-09T02:21:41.566Z,12.99
2022-09-09T02:22:29.612Z,12.95
2022-09-09T02:23:16.515Z,12.95
2022-09-09T02:24:06.074Z,13.02
2022-09-09T02:24:56.092Z,13.05
2022-09-09T02:25:43.384Z,13.00
2022-09-09T02:26:30.144Z,12.99
2022-09-09T02:27:18.004Z,13.01
2022-09-09T02:28:07.862Z,12.96
2022-09-09T02:28:56.833Z,12.94
2022-09-09T02:29:45.566Z,12.92
2022-09-09T02:30:33.668Z,12.87
2022-09-09T02:31:23.363Z,12.86
2022-09-09T02:32:22.445Z,12.82
2022-09-09T02:33:11.723Z,12.85
2022-09-09T02:34:01.543Z,12.85
2022-09-09T02:34:55.273Z,12.86
2022-09-09T02:35:43.813Z,12.88
2022-09-09T02:36:34.510Z,12.85
2022-09-09T02:37:26.114Z,12.85
2022-09-09T02:38:15.091Z,12.87
2022-09-09T02:39:02.972Z,12.88
2022-09-09T02:39:49.709Z,12.81
2022-09-09T02:40:36.403Z,12.83
2022-09-09T02:41:29.223Z,12.82
2022-09-09T02:42:16.052Z,12.85
2022-09-09T02:43:04.144Z,12.88
2022-09-09T02:43:50.906Z,12.86
2022-09-09T02:44:38.353Z,12.87
2022-09-09T02:45:33.521Z,12.87
2022-09-09T02:46:20.244Z,12.82
2022-09-09T02:47:37.624Z,12.83
2022-09-09T02:48:59.905Z,12.85
2022-09-09T02:50:07.954Z,12.91
2022-09-09T02:51:07.557Z,12.97
2022-09-09T02:52:03.610Z,12.90
2022-09-09T02:53:11.265Z,12.88
2022-09-09T02:54:09.782Z,12.90
2022-09-09T02:55:00.923Z,12.90
2022-09-09T02:55:59.484Z,12.82
2022-09-09T02:56:58.532Z,12.81
2022-09-09T02:57:48.222Z,12.78
2022-09-09T02:58:35.064Z,12.76
2022-09-09T02:59:22.861Z,12.78
2022-09-09T03:00:10.926Z,12.79
2022-09-09T03:00:59.070Z,12.76
2022-09-09T03:01:46.205Z,12.67
2022-09-09T03:02:32.914Z,12.65
2022-09-09T03:03:20.874Z,12.61
2022-09-09T03:04:07.653Z,12.56
2022-09-09T03:04:54.343Z,12.47
2022-09-09T03:05:42.930Z,12.50
2022-09-09T03:06:31.395Z,12.53
2022-09-09T03:07:18.883Z,12.51
2022-09-09T03:08:06.656Z,12.50
2022-09-09T03:08:53.594Z,12.64
2022-09-09T03:09:40.274Z,12.64
2022-09-09T03:10:27.056Z,12.63
2022-09-09T03:11:15.184Z,12.59
2022-09-09T03:12:02.073Z,12.59
2022-09-09T03:12:48.764Z,12.54
2022-09-09T03:13:35.473Z,12.50
2022-09-09T03:14:25.684Z,12.51
2022-09-09T03:15:12.425Z,12.45
2022-09-09T03:15:59.175Z,12.47
2022-09-09T03:16:47.451Z,12.45
2022-09-09T03:17:35.364Z,12.51
2022-09-09T03:18:22.384Z,12.50
2022-09-09T03:19:09.133Z,12.48
2022-09-09T03:19:56.207Z,12.44
2022-09-09T03:20:43.206Z,12.39
2022-09-09T03:21:30.113Z,12.43
2022-09-09T03:22:16.915Z,12.41
2022-09-09T03:23:03.954Z,12.36
2022-09-09T03:23:50.663Z,12.35
2022-09-09T03:24:37.352Z,12.32
2022-09-09T03:25:27.377Z,12.35
2022-09-09T03:26:16.192Z,12.39
2022-09-09T03:27:02.878Z,12.40
2022-09-09T03:27:50.803Z,12.45
2022-09-09T03:28:37.519Z,12.49
2022-09-09T03:29:24.314Z,12.49
2022-09-09T03:30:11.863Z,12.41
2022-09-09T03:31:02.514Z,12.42
2022-09-09T03:31:49.194Z,12.45
2022-09-09T03:32:36.054Z,12.51
2022-09-09T03:33:22.763Z,12.52
2022-09-09T03:34:09.464Z,12.56
2022-09-09T03:34:56.161Z,12.55
2022-09-09T03:35:49.883Z,12.55
2022-09-09T03:36:37.604Z,12.50
2022-09-09T03:37:24.334Z,12.52
2022-09-09T03:38:11.824Z,12.50
2022-09-09T03:38:59.123Z,12.46
2022-09-09T03:39:46.136Z,12.52
2022-09-09T03:40:32.892Z,12.53
2022-09-09T03:41:19.684Z,12.59
2022-09-09T03:42:06.833Z,12.59
2022-09-09T03:42:53.763Z,12.58
2022-09-09T03:43:40.694Z,12.60
2022-09-09T03:44:27.404Z,12.55
2022-09-09T03:45:14.115Z,12.54
2022-09-09T03:46:01.030Z,12.56
2022-09-09T03:46:47.924Z,12.54
2022-09-09T03:47:34.694Z,12.55
2022-09-09T03:48:21.445Z,12.56
2022-09-09T03:49:08.206Z,12.55
2022-09-09T03:49:54.882Z,12.49
2022-09-09T03:50:45.984Z,12.46
2022-09-09T03:51:32.723Z,12.44
2022-09-09T03:52:23.525Z,12.47
2022-09-09T03:53:10.603Z,12.43
2022-09-09T03:53:59.219Z,12.46
2022-09-09T03:54:46.155Z,12.47
2022-09-09T03:55:33.612Z,12.46
2022-09-09T03:56:22.563Z,12.45
2022-09-09T03:57:10.804Z,12.43
2022-09-09T03:57:57.474Z,12.38
2022-09-09T03:58:44.293Z,12.40
2022-09-09T03:59:31.594Z,12.40
2022-09-09T04:00:18.434Z,12.48
2022-09-09T04:01:11.591Z,12.53
2022-09-09T04:02:00.278Z,12.55
2022-09-09T04:02:47.134Z,12.45
2022-09-09T04:03:33.844Z,12.41
2022-09-09T04:04:21.253Z,12.39
2022-09-09T04:05:08.247Z,12.41
2022-09-09T04:05:56.504Z,12.38
2022-09-09T04:06:43.263Z,12.38
2022-09-09T04:07:29.967Z,12.35
2022-09-09T04:08:17.024Z,12.35
2022-09-09T04:09:04.445Z,12.35
2022-09-09T04:09:51.283Z,12.31
2022-09-09T04:10:38.367Z,12.37
2022-09-09T04:11:25.654Z,12.33
2022-09-09T04:12:14.338Z,12.31
2022-09-09T04:13:01.044Z,12.31
2022-09-09T04:13:47.834Z,12.28
2022-09-09T04:14:34.563Z,12.32
2022-09-09T04:15:21.274Z,12.32
2022-09-09T04:16:09.370Z,12.30
2022-09-09T04:16:58.602Z,12.30
2022-09-09T04:17:45.315Z,12.30
2022-09-09T04:18:32.578Z,12.30
2022-09-09T04:19:19.304Z,12.29
2022-09-09T04:20:06.594Z,12.30
2022-09-09T04:20:54.275Z,12.29
2022-09-09T04:21:44.066Z,12.29
2022-09-09T04:22:30.784Z,12.31
2022-09-09T04:23:19.793Z,12.30
2022-09-09T04:24:08.143Z,12.31
2022-09-09T04:24:54.873Z,12.36
2022-09-09T04:25:52.523Z,12.38
2022-09-09T04:26:39.245Z,12.33
2022-09-09T04:27:25.964Z,12.37
2022-09-09T04:28:12.713Z,12.31
2022-09-09T04:28:59.797Z,12.28
2022-09-09T04:29:46.484Z,12.34
2022-09-09T04:30:33.163Z,12.37
2022-09-09T04:31:24.814Z,12.42
2022-09-09T04:32:12.682Z,12.43
2022-09-09T04:32:59.363Z,12.37
2022-09-09T04:33:46.096Z,12.38
2022-09-09T04:34:33.905Z,12.39
2022-09-09T04:35:21.255Z,12.39
2022-09-09T04:36:09.003Z,12.40
2022-09-09T04:36:55.863Z,12.45
2022-09-09T04:37:42.575Z,12.45
2022-09-09T04:38:29.305Z,12.43
2022-09-09T04:39:16.226Z,12.40
2022-09-09T04:40:03.916Z,12.42
2022-09-09T04:40:52.686Z,12.46
2022-09-09T04:41:39.614Z,12.55
2022-09-09T04:42:26.524Z,12.53
2022-09-09T04:43:14.599Z,12.54
2022-09-09T04:44:01.949Z,12.57
2022-09-09T04:44:48.624Z,12.61
2022-09-09T04:45:35.379Z,12.64
2022-09-09T04:46:23.842Z,12.64
2022-09-09T04:47:11.232Z,12.63
2022-09-09T04:47:58.464Z,12.65
2022-09-09T04:48:45.266Z,12.67
2022-09-09T04:49:32.583Z,12.68
2022-09-09T04:50:22.024Z,12.65
2022-09-09T04:51:13.516Z,12.69
2022-09-09T04:52:00.238Z,12.74
2022-09-09T04:52:46.945Z,12.76
2022-09-09T04:53:35.453Z,12.70
2022-09-09T04:54:22.535Z,12.67
2022-09-09T04:55:10.884Z,12.64
2022-09-09T04:56:07.993Z,12.65
2022-09-09T04:56:55.993Z,12.72
2022-09-09T04:57:42.743Z,12.72
2022-09-09T04:58:29.530Z,12.73
2022-09-09T04:59:16.294Z,12.71
2022-09-09T05:00:04.495Z,12.69
2022-09-09T05:00:52.972Z,12.71
2022-09-09T05:01:39.816Z,12.68
2022-09-09T05:02:31.004Z,12.70
2022-09-09T05:03:18.304Z,12.76
2022-09-09T05:04:05.075Z,12.74
2022-09-09T05:04:51.813Z,12.74
2022-09-09T05:05:38.613Z,12.81
2022-09-09T05:06:25.650Z,12.83
2022-09-09T05:07:12.375Z,12.87
2022-09-09T05:08:04.083Z,12.90
2022-09-09T05:08:50.847Z,12.93
2022-09-09T05:09:37.560Z,12.92
2022-09-09T05:10:24.396Z,12.96
2022-09-09T05:11:31.365Z,12.99
2022-09-09T05:12:18.107Z,13.05
2022-09-09T05:13:05.733Z,13.02
2022-09-09T05:13:53.204Z,13.02
2022-09-09T05:14:39.903Z,13.06
2022-09-09T05:15:26.723Z,13.11
2022-09-09T05:16:14.983Z,13.21
2022-09-09T05:17:01.753Z,13.15
2022-09-09T05:17:48.687Z,13.19
2022-09-09T05:18:35.426Z,13.17
2022-09-09T05:19:22.154Z,13.20
2022-09-09T05:20:11.290Z,13.27
2022-09-09T05:21:01.633Z,13.27
2022-09-09T05:21:48.453Z,13.20
2022-09-09T05:22:35.136Z,13.19
2022-09-09T05:23:21.865Z,13.21
2022-09-09T05:24:08.702Z,13.25
2022-09-09T05:24:55.378Z,13.25
2022-09-09T05:25:43.534Z,13.28
2022-09-09T05:26:30.916Z,13.33
2022-09-09T05:27:21.311Z,13.39
2022-09-09T05:28:09.067Z,13.31
2022-09-09T05:28:56.402Z,13.29
2022-09-09T05:29:45.629Z,13.24
2022-09-09T05:30:32.283Z,13.26
2022-09-09T05:31:20.224Z,13.37
2022-09-09T05:32:07.020Z,13.43
2022-09-09T05:32:53.674Z,13.45
2022-09-09T05:33:41.836Z,13.49
2022-09-09T05:34:28.615Z,13.48
2022-09-09T05:35:15.814Z,13.48
2022-09-09T05:36:06.417Z,13.44
2022-09-09T05:36:53.803Z,13.48
2022-09-09T05:37:40.947Z,13.55
2022-09-09T05:38:28.893Z,13.58
2022-09-09T05:39:15.705Z,13.58
2022-09-09T05:40:03.106Z,13.63
2022-09-09T05:40:50.445Z,13.73
2022-09-09T05:41:37.165Z,13.82
2022-09-09T05:42:23.924Z,13.89
2022-09-09T05:43:10.755Z,13.86
2022-09-09T05:43:57.616Z,13.93
2022-09-09T05:44:46.014Z,13.98
2022-09-09T05:45:32.733Z,14.00
2022-09-09T05:46:22.575Z,14.05
2022-09-09T05:47:10.774Z,14.08
2022-09-09T05:47:58.363Z,14.06
2022-09-09T05:48:47.533Z,14.14
2022-09-09T05:49:34.247Z,14.21
2022-09-09T05:50:20.994Z,14.27
2022-09-09T05:51:10.384Z,14.28
2022-09-09T05:51:57.224Z,14.32
2022-09-09T05:52:45.693Z,14.31
2022-09-09T05:53:38.933Z,14.35
2022-09-09T05:54:25.618Z,14.40
2022-09-09T05:55:12.331Z,14.49
2022-09-09T05:56:04.644Z,14.58
2022-09-09T05:56:52.094Z,14.67
2022-09-09T05:57:38.844Z,14.75
2022-09-09T05:58:25.763Z,14.80
2022-09-09T05:59:13.739Z,15.00
2022-09-09T06:00:00.670Z,15.22
2022-09-09T06:00:47.544Z,15.52
2022-09-09T06:01:36.319Z,15.85
2022-09-09T06:02:23.206Z,16.16
2022-09-09T06:03:12.523Z,16.39
2022-09-09T06:03:59.383Z,16.77
2022-09-09T06:04:46.103Z,16.99
2022-09-09T06:05:33.097Z,17.20
2022-09-09T06:06:22.552Z,17.28
2022-09-09T06:07:09.316Z,17.19
2022-09-09T06:07:56.293Z,17.14
2022-09-09T06:08:47.633Z,17.22
2022-09-09T06:09:34.595Z,17.28
2022-09-09T06:10:21.564Z,17.17
2022-09-09T06:11:10.644Z,17.13
2022-09-09T06:11:59.345Z,17.15
2022-09-09T06:12:46.308Z,17.17
2022-09-09T06:13:33.445Z,17.05
2022-09-09T06:14:20.352Z,17.12
2022-09-09T06:15:08.294Z,17.10
2022-09-09T06:15:55.068Z,17.05
2022-09-09T06:16:44.295Z,16.96
2022-09-09T06:17:31.212Z,16.80
2022-09-09T06:18:19.803Z,16.73
2022-09-09T06:19:07.473Z,16.68
2022-09-09T06:19:54.793Z,16.61
2022-09-09T06:20:42.078Z,16.53
2022-09-09T06:21:31.577Z,16.33
2022-09-09T06:22:18.242Z,16.33
2022-09-09T06:23:05.026Z,16.34
2022-09-09T06:23:58.939Z,16.23
2022-09-09T06:24:47.033Z,16.22
2022-09-09T06:25:35.465Z,16.23
2022-09-09T06:26:25.182Z,16.18
2022-09-09T06:27:11.985Z,16.13
2022-09-09T06:27:58.886Z,16.16
2022-09-09T06:28:46.715Z,16.16
2022-09-09T06:29:33.384Z,16.16
2022-09-09T06:30:20.504Z,16.10
2022-09-09T06:31:09.346Z,16.11
2022-09-09T06:31:56.241Z,16.11
2022-09-09T06:32:43.970Z,16.15
2022-09-09T06:33:36.144Z,16.18
2022-09-09T06:34:22.895Z,16.22
2022-09-09T06:35:09.824Z,16.25
2022-09-09T06:35:58.214Z,16.29
2022-09-09T06:36:45.214Z,16.32
2022-09-09T06:37:32.232Z,16.36
2022-09-09T06:38:19.744Z,16.40
2022-09-09T06:39:12.193Z,16.42
2022-09-09T06:40:00.548Z,16.46
2022-09-09T06:40:57.665Z,16.54
2022-09-09T06:41:44.358Z,16.61
2022-09-09T06:42:32.665Z,16.66
2022-09-09T06:43:20.747Z,16.70
2022-09-09T06:44:07.772Z,16.72
2022-09-09T06:44:54.513Z,16.78
2022-09-09T06:45:41.212Z,16.83
2022-09-09T06:46:31.443Z,16.90
2022-09-09T06:47:18.279Z,16.98
2022-09-09T06:48:04.964Z,17.02
2022-09-09T06:48:51.605Z,17.11
2022-09-09T06:49:38.343Z,17.18
2022-09-09T06:50:25.023Z,17.26
2022-09-09T06:51:17.584Z,17.32
2022-09-09T06:52:04.377Z,17.39
2022-09-09T06:52:51.167Z,17.47
2022-09-09T06:53:38.823Z,17.52
2022-09-09T06:54:26.471Z,17.57
2022-09-09T06:55:14.284Z,17.64
2022-09-09T06:56:03.203Z,17.67
2022-09-09T06:56:51.096Z,17.71
2022-09-09T06:57:38.131Z,17.74
2022-09-09T06:58:25.015Z,17.78
2022-09-09T06:59:13.368Z,17.83
2022-09-09T07:00:00.209Z,17.87
2022-09-09T07:00:47.046Z,17.92
2022-09-09T07:01:36.048Z,17.99
2022-09-09T07:02:22.922Z,18.08
2022-09-09T07:03:11.314Z,18.10
2022-09-09T07:03:59.990Z,18.13
2022-09-09T07:04:46.811Z,18.15
2022-09-09T07:05:33.675Z,18.18
2022-09-09T07:06:22.923Z,18.20
2022-09-09T07:07:10.886Z,18.23
2022-09-09T07:07:57.582Z,18.27
2022-09-09T07:08:55.791Z,18.31
2022-09-09T07:09:43.573Z,18.31
2022-09-09T07:10:30.263Z,18.34
2022-09-09T07:11:17.413Z,18.36
2022-09-09T07:12:05.434Z,18.36
2022-09-09T07:12:55.903Z,18.33
2022-09-09T07:13:43.311Z,18.32
2022-09-09T07:14:30.123Z,18.32
2022-09-09T07:15:16.862Z,18.28
2022-09-09T07:16:08.680Z,18.23
2022-09-09T07:16:59.315Z,18.17
2022-09-09T07:17:46.464Z,18.17
2022-09-09T07:18:34.488Z,18.14
2022-09-09T07:19:21.293Z,18.12
2022-09-09T07:20:08.399Z,18.01
2022-09-09T07:20:56.280Z,18.03
2022-09-09T07:21:43.363Z,18.05
2022-09-09T07:22:30.202Z,18.10
2022-09-09T07:23:17.372Z,18.10
2022-09-09T07:24:06.241Z,18.12
2022-09-09T07:24:52.987Z,18.19
2022-09-09T07:25:46.593Z,18.22
2022-09-09T07:26:33.363Z,18.30
2022-09-09T07:27:20.143Z,18.33
2022-09-09T07:28:08.665Z,18.40
2022-09-09T07:28:57.559Z,18.51
2022-09-09T07:29:44.322Z,18.57
2022-09-09T07:30:31.075Z,18.68
2022-09-09T07:31:20.213Z,18.72
2022-09-09T07:32:06.954Z,18.73
2022-09-09T07:32:53.853Z,18.80
2022-09-09T07:33:42.021Z,18.88
2022-09-09T07:34:28.734Z,18.96
2022-09-09T07:35:15.601Z,19.04
2022-09-09T07:36:08.313Z,19.08
2022-09-09T07:36:55.398Z,19.07
2022-09-09T07:37:42.374Z,19.18
2022-09-09T07:38:30.353Z,19.22
2022-09-09T07:39:18.696Z,19.28
2022-09-09T07:40:06.899Z,19.41
2022-09-09T07:40:53.663Z,19.54
2022-09-09T07:41:43.393Z,19.58
2022-09-09T07:42:30.301Z,19.69
2022-09-09T07:43:19.963Z,19.72
2022-09-09T07:44:15.453Z,19.75
2022-09-09T07:45:02.146Z,19.84
2022-09-09T07:45:48.893Z,19.92
2022-09-09T07:46:36.433Z,20.08
2022-09-09T07:47:23.904Z,20.16
2022-09-09T07:48:10.685Z,20.21
2022-09-09T07:48:58.045Z,20.24
2022-09-09T07:49:44.784Z,20.21
2022-09-09T07:50:31.554Z,20.20
2022-09-09T07:51:20.933Z,20.19
2022-09-09T07:52:59.765Z,20.16
2022-09-09T07:53:52.903Z,20.06
2022-09-09T07:54:39.662Z,20.03
2022-09-09T07:55:27.510Z,20.17
2022-09-09T07:56:17.865Z,20.28
2022-09-09T07:57:05.469Z,20.33
2022-09-09T07:57:52.726Z,20.30
2022-09-09T07:58:41.243Z,20.33
2022-09-09T07:59:31.511Z,20.28
2022-09-09T08:00:19.954Z,20.22
2022-09-09T08:01:21.809Z,20.29
2022-09-09T08:02:10.706Z,20.26
2022-09-09T08:02:57.559Z,20.30
2022-09-09T08:03:45.414Z,20.31
2022-09-09T08:04:32.125Z,20.32
2022-09-09T08:05:19.334Z,20.33
2022-09-09T08:06:08.254Z,20.37
2022-09-09T08:06:58.187Z,20.34
2022-09-09T08:07:45.365Z,20.34
2022-09-09T08:08:32.047Z,20.38
2022-09-09T08:09:18.997Z,20.33
2022-09-09T08:10:06.054Z,20.37
2022-09-09T08:10:53.373Z,20.43
2022-09-09T08:11:40.523Z,20.41
2022-09-09T08:12:27.241Z,20.36
2022-09-09T08:13:18.421Z,20.27
2022-09-09T08:14:05.803Z,20.19
2022-09-09T08:14:53.006Z,20.19
2022-09-09T08:15:43.271Z,20.22
2022-09-09T08:16:32.232Z,20.31
2022-09-09T08:17:18.993Z,20.44
2022-09-09T08:18:06.584Z,20.36
2022-09-09T08:18:53.984Z,20.36
2022-09-09T08:19:40.763Z,20.20
2022-09-09T08:20:28.103Z,20.19
2022-09-09T08:21:20.713Z,20.24
2022-09-09T08:22:08.886Z,20.32
2022-09-09T08:22:56.794Z,20.42
2022-09-09T08:23:44.672Z,20.35
2022-09-09T08:24:31.734Z,20.39
2022-09-09T08:25:18.648Z,20.43
2022-09-09T08:26:25.284Z,20.44
2022-09-09T08:27:12.084Z,20.47
2022-09-09T08:27:58.783Z,20.46
2022-09-09T08:28:45.574Z,20.42
2022-09-09T08:29:32.333Z,20.30
2022-09-09T08:30:19.207Z,20.23
2022-09-09T08:31:08.117Z,20.26
2022-09-09T08:31:58.348Z,20.31
2022-09-09T08:32:46.071Z,20.36
2022-09-09T08:33:34.713Z,20.38
2022-09-09T08:34:22.542Z,20.38
2022-09-09T08:35:09.901Z,20.44
2022-09-09T08:35:57.182Z,20.39
2022-09-09T08:36:46.148Z,20.38
2022-09-09T08:37:33.245Z,20.32
2022-09-09T08:38:19.902Z,20.32
2022-09-09T08:39:08.084Z,20.46
2022-09-09T08:39:55.443Z,20.37
2022-09-09T08:40:44.843Z,20.39
2022-09-09T08:41:56.460Z,20.37
2022-09-09T08:42:48.023Z,20.39
2022-09-09T08:43:34.872Z,20.42
2022-09-09T08:44:28.823Z,20.39
2022-09-09T08:45:21.465Z,20.36
2022-09-09T08:46:14.939Z,20.36
2022-09-09T08:47:23.908Z,20.46
2022-09-09T08:48:14.473Z,20.57
2022-09-09T08:49:23.588Z,20.57
2022-09-09T08:50:25.914Z,20.59
2022-09-09T08:51:14.054Z,20.68
2022-09-09T08:52:01.123Z,20.75
2022-09-09T08:53:23.619Z,20.82
2022-09-09T08:54:11.043Z,20.87
2022-09-09T08:55:30.015Z,20.93
2022-09-09T08:56:25.503Z,20.97
2022-09-09T08:57:16.212Z,21.04
2022-09-09T08:58:18.824Z,21.08
2022-09-09T08:59:06.381Z,21.13
2022-09-09T08:59:54.784Z,21.20
2022-09-09T09:00:44.933Z,21.23
2022-09-09T09:01:43.546Z,21.25
2022-09-09T09:02:47.690Z,21.31
2022-09-09T09:03:58.463Z,21.39
2022-09-09T09:05:21.450Z,21.33
2022-09-09T09:06:18.265Z,21.33
2022-09-09T09:07:08.502Z,21.37
2022-09-09T09:08:07.515Z,21.40
2022-09-09T09:09:17.654Z,21.34
2022-09-09T09:10:41.279Z,21.27
2022-09-09T09:11:38.914Z,21.32
2022-09-09T09:12:28.522Z,21.42
2022-09-09T09:13:24.193Z,21.48
2022-09-09T09:14:18.753Z,21.44
2022-09-09T09:15:29.454Z,21.43
2022-09-09T09:16:33.629Z,21.46
2022-09-09T09:17:21.889Z,21.52
2022-09-09T09:18:13.645Z,21.61
2022-09-09T09:19:01.195Z,21.63
2022-09-09T09:19:49.422Z,21.66
2022-09-09T09:21:04.764Z,21.69
2022-09-09T09:22:32.263Z,21.76
2022-09-09T09:23:27.349Z,21.76
2022-09-09T09:24:28.543Z,21.75
2022-09-09T09:25:25.274Z,21.78
2022-09-09T09:26:13.116Z,21.82
2022-09-09T09:27:08.824Z,21.81
2022-09-09T09:28:18.556Z,21.89
2022-09-09T09:29:13.191Z,21.96
2022-09-09T09:31:13.466Z,22.05
2022-09-09T09:32:03.156Z,22.09
2022-09-09T09:32:59.663Z,22.13
2022-09-09T09:33:53.959Z,22.17
2022-09-09T09:34:40.944Z,22.17
2022-09-09T09:35:27.865Z,22.22
2022-09-09T09:36:17.874Z,22.23
2022-09-09T09:37:15.891Z,22.25
2022-09-09T09:40:22.303Z,22.38
2022-09-09T09:41:09.062Z,22.37
2022-09-09T09:41:56.444Z,22.42
2022-09-09T09:43:00.803Z,22.45
2022-09-09T09:43:55.085Z,22.53
2022-09-09T09:44:41.934Z,22.55
2022-09-09T09:45:35.254Z,22.57
2022-09-09T09:46:43.664Z,22.57
2022-09-09T09:47:30.524Z,22.50
2022-09-09T09:48:17.285Z,22.53
2022-09-09T09:49:06.775Z,22.58
2022-09-09T09:49:53.763Z,22.57
2022-09-09T09:51:08.794Z,22.52
2022-09-09T09:52:01.875Z,22.59
2022-09-09T09:52:56.948Z,22.58
2022-09-09T09:53:44.040Z,22.61
2022-09-09T09:54:43.213Z,22.66
2022-09-09T09:55:32.265Z,22.68
2022-09-09T09:56:28.244Z,22.72
2022-09-09T09:57:18.257Z,22.57
2022-09-09T09:58:08.385Z,22.45
2022-09-09T09:58:55.742Z,22.41
2022-09-09T09:59:42.623Z,22.39
2022-09-09T10:00:29.392Z,22.39
2022-09-09T10:01:22.171Z,22.42
2022-09-09T10:02:20.733Z,22.49
2022-09-09T10:03:38.597Z,22.59
2022-09-09T10:04:25.591Z,22.60
2022-09-09T10:05:37.674Z,22.72
2022-09-09T10:06:34.853Z,22.79
2022-09-09T10:07:23.095Z,22.76
2022-09-09T10:08:10.416Z,22.81
2022-09-09T10:08:57.517Z,22.80
2022-09-09T10:09:44.413Z,22.87
2022-09-09T10:10:57.103Z,22.80
2022-09-09T10:12:12.515Z,22.62
2022-09-09T10:13:10.394Z,22.64
2022-09-09T10:14:12.546Z,22.77
2022-09-09T10:15:14.346Z,22.87
2022-09-09T10:16:32.105Z,22.89
2022-09-09T10:17:43.306Z,22.92
2022-09-09T10:18:51.513Z,22.83
2022-09-09T10:19:38.882Z,22.93
2022-09-09T10:20:37.345Z,23.02
2022-09-09T10:21:46.343Z,23.07
2022-09-09T10:22:35.363Z,23.00
2022-09-09T10:23:28.458Z,23.10
2022-09-09T10:24:24.415Z,23.16
2022-09-09T10:25:19.934Z,23.23
2022-09-09T10:26:12.309Z,23.26
2022-09-09T10:27:21.306Z,23.27
2022-09-09T10:28:38.194Z,23.26
2022-09-09T10:29:28.344Z,23.20
2022-09-09T10:30:17.645Z,23.13
2022-09-09T10:31:05.050Z,23.03
2022-09-09T10:32:07.214Z,23.01
2022-09-09T10:32:56.996Z,22.99
2022-09-09T10:34:05.593Z,22.98
2022-09-09T10:35:19.263Z,22.87
2022-09-09T10:36:20.683Z,22.91
2022-09-09T10:37:39.123Z,22.90
2022-09-09T10:38:44.503Z,22.97
2022-09-09T10:39:42.157Z,23.05
2022-09-09T10:40:35.985Z,23.05
2022-09-09T10:41:36.953Z,23.17
2022-09-09T10:42:29.685Z,23.34
2022-09-09T10:43:41.064Z,23.39
2022-09-09T10:45:03.329Z,23.44
2022-09-09T10:46:15.786Z,23.50
2022-09-09T10:47:11.123Z,23.53
2022-09-09T10:48:36.612Z,23.55
2022-09-09T10:49:45.154Z,23.65
2022-09-09T10:51:03.453Z,23.79
2022-09-09T10:52:01.278Z,23.94
2022-09-09T10:53:09.474Z,24.00
2022-09-09T10:54:15.185Z,23.91
2022-09-09T10:55:08.523Z,24.05
2022-09-09T10:56:01.272Z,24.21
2022-09-09T10:56:54.613Z,24.36
2022-09-09T10:57:53.543Z,24.35
2022-09-09T10:58:56.403Z,24.26
2022-09-09T10:59:48.513Z,24.29
2022-09-09T11:00:48.443Z,24.42
2022-09-09T11:01:48.376Z,24.50
2022-09-09T11:02:35.884Z,24.50
2022-09-09T11:03:28.133Z,24.61
2022-09-09T11:04:28.489Z,24.63
2022-09-09T11:05:25.674Z,24.74
2022-09-09T11:06:20.937Z,24.65
2022-09-09T11:07:12.105Z,24.44
2022-09-09T11:08:02.631Z,24.38
2022-09-09T11:08:53.803Z,24.54
2022-09-09T11:09:49.633Z,24.49
2022-09-09T11:10:42.304Z,24.67
2022-09-09T11:11:29.122Z,24.76
2022-09-09T11:12:20.533Z,24.77
2022-09-09T11:13:13.475Z,24.64